Time;durP1;ratioP1;P1;durP2;ratioP2;P2;SDS_P1;SDS_P2;PMS_P1;PMS_P2;Temp;Humidity;BMP_temperature;BMP_pressure;BME280_temperature;BME280_humidity;BME280_pressure;Samples;Min_cycle;Max_cycle;Signal;HPM_P1;HPM_P2
2022/08/07 00:00:26;;;;;;;6.38;4.88;;;14.60;99.90;;;;;;5015126;28;20120;-77
2022/08/07 00:02:54;;;;;;;8.50;4.97;;;14.60;99.90;;;;;;5023523;28;20038;-77
2022/08/07 00:05:21;;;;;;;6.20;5.00;;;14.50;99.90;;;;;;5019179;28;20045;-77
2022/08/07 00:07:47;;;;;;;6.70;5.10;;;14.50;99.90;;;;;;5014977;28;20037;-77
2022/08/07 00:10:12;;;;;;;7.03;5.63;;;14.50;99.90;;;;;;5010322;28;20409;-77
2022/08/07 00:12:38;;;;;;;8.07;6.18;;;14.50;99.90;;;;;;5032373;28;20061;-77
2022/08/07 00:15:05;;;;;;;6.80;5.38;;;14.40;99.90;;;;;;5008324;28;20075;-77
2022/08/07 00:17:30;;;;;;;6.40;5.18;;;14.40;99.90;;;;;;4999179;28;20072;-77
2022/08/07 00:19:56;;;;;;;6.93;5.35;;;14.30;99.90;;;;;;5031820;28;20072;-77
2022/08/07 00:22:22;;;;;;;8.25;5.35;;;14.20;99.90;;;;;;5025739;28;20041;-77
2022/08/07 00:24:47;;;;;;;8.70;6.15;;;14.20;99.90;;;;;;5014151;28;20048;-76
2022/08/07 00:27:13;;;;;;;7.93;6.03;;;14.10;99.90;;;;;;5014736;28;20041;-77
2022/08/07 00:29:39;;;;;;;6.18;5.45;;;14.10;99.90;;;;;;5021757;28;20045;-77
2022/08/07 00:32:05;;;;;;;7.72;5.78;;;14.00;99.90;;;;;;5015540;28;20033;-77
2022/08/07 00:34:31;;;;;;;6.25;5.20;;;14.00;99.90;;;;;;5008543;28;20053;-77
2022/08/07 00:36:57;;;;;;;8.45;6.40;;;14.00;99.90;;;;;;5022368;28;20473;-76
2022/08/07 00:39:23;;;;;;;8.10;6.00;;;14.00;99.90;;;;;;5004654;28;20064;-77
2022/08/07 00:41:50;;;;;;;7.28;6.00;;;14.00;99.90;;;;;;5024910;28;20069;-77
2022/08/07 00:44:16;;;;;;;10.43;6.13;;;13.90;99.90;;;;;;5025987;28;20076;-77
2022/08/07 00:46:42;;;;;;;9.27;5.60;;;13.90;99.90;;;;;;5006916;28;20061;-77
2022/08/07 00:49:08;;;;;;;6.95;5.65;;;14.00;99.90;;;;;;5014453;28;20045;-77
2022/08/07 00:51:34;;;;;;;8.15;5.82;;;13.90;99.90;;;;;;5017745;28;20069;-77
2022/08/07 00:54:00;;;;;;;7.25;5.90;;;13.90;99.90;;;;;;5013913;28;20113;-77
2022/08/07 00:56:28;;;;;;;8.00;6.25;;;13.90;99.90;;;;;;4998450;28;20136;-77
2022/08/07 00:58:54;;;;;;;7.18;5.85;;;13.90;99.90;;;;;;5040688;28;20054;-77
2022/08/07 01:01:21;;;;;;;7.82;6.20;;;13.80;99.90;;;;;;5013137;28;20045;-77
2022/08/07 01:03:48;;;;;;;6.93;5.32;;;13.70;99.90;;;;;;4979061;28;20432;-77
2022/08/07 01:06:14;;;;;;;8.48;5.97;;;13.70;99.90;;;;;;5014219;28;20033;-77
2022/08/07 01:08:41;;;;;;;9.10;5.82;;;13.70;99.90;;;;;;5030808;28;20580;-77
2022/08/07 01:11:07;;;;;;;6.68;5.63;;;13.70;99.90;;;;;;5015153;28;20362;-77
2022/08/07 01:13:34;;;;;;;11.48;5.93;;;13.70;99.90;;;;;;5037535;28;20124;-77
2022/08/07 01:16:01;;;;;;;7.00;5.05;;;13.70;99.90;;;;;;5010079;28;20053;-77
2022/08/07 01:18:28;;;;;;;6.25;5.40;;;13.70;99.90;;;;;;5030055;28;20037;-77
2022/08/07 01:21:17;;;;;;;8.90;5.72;;;13.70;99.90;;;;;;5029226;28;20045;-77
2022/08/07 01:23:45;;;;;;;6.97;5.53;;;13.70;99.90;;;;;;5020781;28;20104;-77
2022/08/07 01:26:13;;;;;;;7.93;5.47;;;13.70;99.90;;;;;;5009337;28;20030;-77
2022/08/07 01:28:41;;;;;;;8.65;6.82;;;13.60;99.90;;;;;;5031992;28;20041;-76
2022/08/07 01:31:08;;;;;;;10.02;6.35;;;13.70;99.90;;;;;;5028080;28;20107;-77
2022/08/07 01:33:34;;;;;;;8.10;5.75;;;13.60;99.90;;;;;;4997249;28;20059;-77
2022/08/07 01:36:01;;;;;;;6.60;5.45;;;13.60;99.90;;;;;;5025506;28;20030;-76
2022/08/07 01:38:28;;;;;;;7.35;5.63;;;13.60;99.90;;;;;;5012245;28;20034;-77
2022/08/07 01:40:58;;;;;;;8.75;5.65;;;13.60;99.90;;;;;;5028554;28;20100;-77
2022/08/07 01:43:26;;;;;;;8.02;5.70;;;13.60;99.90;;;;;;5008335;28;20444;-77
2022/08/07 01:45:52;;;;;;;5.97;5.38;;;13.50;99.90;;;;;;4998855;28;20132;-77
2022/08/07 01:48:18;;;;;;;7.20;5.63;;;13.50;99.90;;;;;;5028962;28;20033;-77
2022/08/07 01:50:58;;;;;;;6.95;5.45;;;13.50;99.90;;;;;;5026359;28;20045;-76
2022/08/07 01:53:27;;;;;;;7.05;5.15;;;13.50;99.90;;;;;;5033150;28;20037;-76
2022/08/07 01:56:01;;;;;;;7.63;5.07;;;13.40;99.90;;;;;;5019083;28;20049;-77
2022/08/07 01:58:32;;;;;;;6.85;5.65;;;13.40;99.90;;;;;;5041725;28;20486;-77
2022/08/07 02:01:03;;;;;;;8.85;6.88;;;13.30;99.90;;;;;;5039764;28;20059;-77
2022/08/07 02:03:33;;;;;;;8.50;6.53;;;13.30;99.90;;;;;;5031008;28;20506;-77
2022/08/07 02:06:03;;;;;;;9.27;7.13;;;13.30;99.90;;;;;;5017948;28;20041;-77
2022/08/07 02:08:36;;;;;;;10.80;8.30;;;13.20;99.90;;;;;;5018592;28;20037;-77
2022/08/07 02:11:04;;;;;;;12.02;8.95;;;13.20;99.90;;;;;;5025474;28;20132;-77
2022/08/07 02:13:32;;;;;;;9.85;7.90;;;13.20;99.90;;;;;;5017717;28;20048;-77
2022/08/07 02:16:01;;;;;;;9.70;7.53;;;13.10;99.90;;;;;;5016823;28;20075;-77
2022/08/07 02:18:30;;;;;;;10.77;8.02;;;13.00;99.90;;;;;;5044209;28;20050;-77
2022/08/07 02:20:58;;;;;;;10.07;7.72;;;13.00;99.90;;;;;;5023235;28;20501;-77
2022/08/07 02:23:25;;;;;;;9.68;7.28;;;13.00;99.90;;;;;;5016833;28;20096;-77
2022/08/07 02:25:54;;;;;;;11.30;8.02;;;13.00;99.90;;;;;;5031957;28;20046;-77
2022/08/07 02:28:21;;;;;;;11.75;7.72;;;13.10;99.90;;;;;;5016349;28;20128;-76
2022/08/07 02:30:48;;;;;;;10.75;8.25;;;13.00;99.90;;;;;;5012489;28;20045;-77
2022/08/07 02:33:17;;;;;;;9.48;7.20;;;13.00;99.90;;;;;;5025751;28;20122;-77
2022/08/07 02:35:45;;;;;;;9.68;7.25;;;13.00;99.90;;;;;;5032280;28;20037;-77
2022/08/07 02:38:13;;;;;;;10.25;7.72;;;13.00;99.90;;;;;;5017589;28;20033;-77
2022/08/07 02:40:39;;;;;;;11.38;7.55;;;13.00;99.90;;;;;;5029838;28;20498;-77
2022/08/07 02:43:06;;;;;;;10.73;8.15;;;13.00;99.90;;;;;;5017795;28;20077;-77
2022/08/07 02:45:33;;;;;;;9.85;8.20;;;12.90;99.90;;;;;;5049769;28;20539;-77
2022/08/07 02:47:59;;;;;;;9.95;7.85;;;12.90;99.90;;;;;;5001121;28;20068;-77
2022/08/07 02:50:25;;;;;;;8.90;7.07;;;12.90;99.90;;;;;;5014064;28;20462;-77
2022/08/07 02:53:05;;;;;;;8.45;7.30;;;12.90;99.90;;;;;;5017660;28;20115;-77
2022/08/07 02:55:36;;;;;;;11.55;7.72;;;12.90;99.90;;;;;;5031122;28;20401;-77
2022/08/07 02:58:05;;;;;;;9.82;7.50;;;12.80;99.90;;;;;;5030917;28;20635;-76
2022/08/07 03:00:34;;;;;;;9.95;8.00;;;12.80;99.90;;;;;;5032509;28;20049;-77
2022/08/07 03:03:01;;;;;;;9.52;7.45;;;12.70;99.90;;;;;;5031522;28;20394;-77
2022/08/07 03:05:27;;;;;;;8.68;7.70;;;12.60;99.90;;;;;;5016830;28;20033;-77
2022/08/07 03:07:55;;;;;;;9.27;6.90;;;12.60;99.90;;;;;;5033272;28;20052;-77
2022/08/07 03:10:22;;;;;;;8.70;7.35;;;12.50;99.90;;;;;;5024838;28;20042;-77
2022/08/07 03:12:48;;;;;;;9.55;7.38;;;12.50;99.90;;;;;;5013189;28;20049;-77
2022/08/07 03:15:15;;;;;;;10.15;7.57;;;12.50;99.90;;;;;;4999343;28;20043;-77
2022/08/07 03:17:42;;;;;;;7.60;6.50;;;12.50;99.90;;;;;;5016455;28;20033;-77
2022/08/07 03:20:08;;;;;;;7.63;6.57;;;12.50;99.90;;;;;;5000213;28;20128;-76
2022/08/07 03:22:36;;;;;;;9.70;6.97;;;12.50;99.90;;;;;;5016216;28;20036;-77
2022/08/07 03:25:02;;;;;;;7.40;6.10;;;12.40;99.90;;;;;;5016458;28;20500;-77
2022/08/07 03:27:28;;;;;;;9.30;7.68;;;12.40;99.90;;;;;;5010833;28;20021;-76
2022/08/07 03:29:55;;;;;;;10.15;8.27;;;12.40;99.90;;;;;;4995551;28;20052;-77
2022/08/07 03:32:25;;;;;;;9.90;7.82;;;12.40;99.90;;;;;;5015957;28;20500;-77
2022/08/07 03:34:56;;;;;;;8.70;7.22;;;12.30;99.90;;;;;;5016860;28;20037;-77
2022/08/07 03:37:24;;;;;;;9.10;7.22;;;12.30;99.90;;;;;;5016019;28;20140;-77
2022/08/07 03:39:50;;;;;;;7.70;6.82;;;12.20;99.90;;;;;;5010211;28;20440;-77
2022/08/07 03:42:17;;;;;;;8.80;6.78;;;12.20;99.90;;;;;;5013833;28;20132;-77
2022/08/07 03:44:44;;;;;;;7.82;6.55;;;12.30;99.90;;;;;;5032190;28;20478;-77
2022/08/07 03:47:11;;;;;;;7.75;6.32;;;12.30;99.90;;;;;;5011423;28;20037;-77
2022/08/07 03:49:37;;;;;;;9.38;6.70;;;12.30;99.90;;;;;;5031491;28;20052;-77
2022/08/07 03:52:06;;;;;;;9.18;7.05;;;12.20;99.90;;;;;;5025928;28;20038;-77
2022/08/07 03:54:33;;;;;;;8.75;6.63;;;12.30;99.90;;;;;;5009715;28;20107;-77
2022/08/07 03:57:00;;;;;;;8.70;6.50;;;12.20;99.90;;;;;;5010226;28;20068;-77
2022/08/07 03:59:26;;;;;;;8.40;6.75;;;12.20;99.90;;;;;;5024687;28;20039;-77
2022/08/07 04:01:54;;;;;;;8.75;6.72;;;12.20;99.90;;;;;;5030288;28;20038;-77
2022/08/07 04:04:20;;;;;;;9.00;6.95;;;12.20;99.90;;;;;;5012329;28;20125;-77
2022/08/07 04:06:46;;;;;;;9.27;7.07;;;12.20;99.90;;;;;;5027924;28;20124;-77
2022/08/07 04:09:13;;;;;;;11.27;7.45;;;12.20;99.90;;;;;;5026856;28;20386;-77
2022/08/07 04:11:39;;;;;;;9.85;7.60;;;12.10;99.90;;;;;;5009996;28;20037;-77
2022/08/07 04:14:05;;;;;;;9.52;7.50;;;12.10;99.90;;;;;;5012414;28;20072;-77
2022/08/07 04:16:32;;;;;;;11.77;7.05;;;12.00;99.90;;;;;;5029612;28;20087;-77
2022/08/07 04:19:00;;;;;;;7.88;6.35;;;12.00;99.90;;;;;;5021120;28;20462;-77
2022/08/07 04:21:26;;;;;;;8.65;7.07;;;11.90;99.90;;;;;;5012483;28;20041;-77
2022/08/07 04:23:53;;;;;;;8.48;6.60;;;11.90;99.90;;;;;;5013896;28;20107;-77
2022/08/07 04:26:18;;;;;;;9.88;6.45;;;11.90;99.90;;;;;;4998593;28;20076;-76
2022/08/07 04:28:44;;;;;;;9.23;6.90;;;11.90;99.90;;;;;;5029636;28;20080;-77
2022/08/07 04:31:10;;;;;;;9.15;6.78;;;11.90;99.90;;;;;;5008963;28;20057;-77
2022/08/07 04:33:38;;;;;;;8.95;7.03;;;11.90;99.90;;;;;;5027795;28;20056;-77
2022/08/07 04:36:07;;;;;;;8.85;6.95;;;12.00;99.90;;;;;;5019537;28;20133;-77
2022/08/07 04:38:33;;;;;;;9.07;7.00;;;11.90;99.90;;;;;;5023615;28;20038;-77
2022/08/07 04:40:59;;;;;;;8.93;6.55;;;12.00;99.90;;;;;;5027188;28;20140;-77
2022/08/07 04:43:46;;;;;;;15.55;6.63;;;12.00;99.90;;;;;;5027661;28;20041;-77
2022/08/07 04:46:29;;;;;;;8.75;6.25;;;12.00;99.90;;;;;;5044869;28;20045;-77
2022/08/07 04:49:13;;;;;;;9.10;6.47;;;12.00;99.90;;;;;;5014393;28;20044;-77
2022/08/07 04:52:12;;;;;;;9.23;6.82;;;12.00;99.90;;;;;;5028346;28;20490;-78
2022/08/07 04:55:03;;;;;;;12.90;7.05;;;12.00;99.90;;;;;;5029728;28;20033;-77
2022/08/07 04:57:40;;;;;;;9.13;7.00;;;12.00;99.90;;;;;;5025365;28;20034;-77
2022/08/07 05:00:34;;;;;;;9.68;6.35;;;12.00;99.90;;;;;;5030090;28;20037;-77
2022/08/07 05:03:20;;;;;;;8.77;6.57;;;12.00;99.90;;;;;;5031269;28;20409;-77
2022/08/07 05:05:54;;;;;;;10.63;7.10;;;12.00;99.90;;;;;;5027537;28;20042;-77
2022/08/07 05:08:26;;;;;;;8.88;7.18;;;12.00;99.90;;;;;;5005083;28;20103;-77
2022/08/07 05:11:00;;;;;;;15.75;7.80;;;12.00;99.90;;;;;;5024574;28;20053;-77
2022/08/07 05:13:35;;;;;;;11.70;7.75;;;12.00;99.90;;;;;;5028110;28;20044;-77
2022/08/07 05:16:04;;;;;;;11.32;8.70;;;12.10;99.90;;;;;;5011979;28;20045;-77
2022/08/07 05:18:38;;;;;;;10.73;8.40;;;12.10;99.90;;;;;;5021143;28;20053;-77
2022/08/07 05:21:10;;;;;;;12.35;8.57;;;12.10;99.90;;;;;;5028300;28;20116;-77
2022/08/07 05:23:46;;;;;;;11.32;7.55;;;12.20;99.90;;;;;;5022916;28;20041;-77
2022/08/07 05:26:16;;;;;;;;;;;12.20;99.90;;;;;;5029997;28;20034;-77
2022/08/07 05:28:44;;;;;;;11.95;8.80;;;12.20;99.90;;;;;;5042962;28;20460;-77
2022/08/07 05:31:16;;;;;;;11.80;8.48;;;12.30;99.90;;;;;;5032117;28;20061;-77
2022/08/07 05:33:42;;;;;;;10.60;8.73;;;12.30;99.90;;;;;;5017521;28;20037;-76
2022/08/07 05:36:10;;;;;;;13.05;9.13;;;12.30;99.90;;;;;;5000424;28;20033;-77
2022/08/07 05:38:38;;;;;;;11.35;8.90;;;12.40;99.90;;;;;;5013245;28;20037;-77
2022/08/07 05:41:04;;;;;;;14.27;9.88;;;12.40;99.90;;;;;;5017054;28;20053;-76
2022/08/07 05:43:32;;;;;;;15.38;10.25;;;12.50;99.90;;;;;;5013836;28;20497;-77
2022/08/07 05:45:58;;;;;;;14.93;10.98;;;12.50;99.90;;;;;;5032710;28;20034;-77
2022/08/07 05:48:25;;;;;;;16.63;10.88;;;12.60;99.90;;;;;;5015971;28;20374;-77
2022/08/07 05:50:51;;;;;;;14.70;11.32;;;12.70;99.90;;;;;;5018239;28;20435;-77
2022/08/07 05:53:16;;;;;;;15.80;10.95;;;12.80;99.90;;;;;;5016059;28;20041;-76
2022/08/07 05:55:43;;;;;;;15.10;10.90;;;12.80;99.90;;;;;;5002284;28;20099;-77
2022/08/07 05:58:10;;;;;;;14.75;10.93;;;12.90;99.90;;;;;;5018224;28;20056;-76
2022/08/07 06:00:37;;;;;;;14.95;10.45;;;12.90;99.90;;;;;;5011954;28;20067;-77
2022/08/07 06:03:07;;;;;;;14.52;10.38;;;13.00;99.90;;;;;;5018431;28;20456;-77
2022/08/07 06:05:33;;;;;;;18.05;11.07;;;13.10;99.90;;;;;;5033281;28;20033;-76
2022/08/07 06:08:00;;;;;;;15.57;11.60;;;13.20;99.90;;;;;;5015475;28;20405;-77
2022/08/07 06:10:27;;;;;;;18.83;12.55;;;13.30;99.90;;;;;;5012351;28;20041;-77
2022/08/07 06:12:53;;;;;;;17.48;11.65;;;13.30;99.90;;;;;;5028200;28;20045;-76
2022/08/07 06:15:19;;;;;;;15.07;10.88;;;13.40;99.90;;;;;;5027657;28;20133;-76
2022/08/07 06:17:45;;;;;;;16.73;12.80;;;13.50;99.90;;;;;;5014327;28;20037;-77
2022/08/07 06:20:12;;;;;;;17.20;12.18;;;13.60;99.90;;;;;;5013002;28;21293;-77
2022/08/07 06:22:41;;;;;;;14.80;11.85;;;13.70;99.90;;;;;;5027432;28;20055;-78
2022/08/07 06:25:07;;;;;;;15.38;11.70;;;13.80;99.90;;;;;;5024750;28;20375;-78
2022/08/07 06:27:33;;;;;;;14.93;11.90;;;13.80;99.90;;;;;;5000036;28;20037;-78
2022/08/07 06:29:59;;;;;;;15.65;10.90;;;14.00;99.90;;;;;;5017574;28;20406;-78
2022/08/07 06:32:25;;;;;;;14.63;11.48;;;14.00;99.90;;;;;;5017657;28;20037;-78
2022/08/07 06:34:51;;;;;;;15.38;10.98;;;14.10;99.90;;;;;;4998976;28;20042;-78
2022/08/07 06:37:16;;;;;;;16.60;12.52;;;14.20;99.90;;;;;;5013864;28;20116;-77
2022/08/07 06:39:42;;;;;;;17.67;12.27;;;14.30;99.90;;;;;;4996317;28;20103;-76
2022/08/07 06:42:14;;;;;;;17.10;12.07;;;14.50;99.90;;;;;;5015976;28;20396;-77
2022/08/07 06:44:43;;;;;;;17.55;12.23;;;14.60;99.90;;;;;;5013416;28;20037;-77
2022/08/07 06:47:09;;;;;;;16.15;12.18;;;14.80;99.90;;;;;;5030872;28;20037;-77
2022/08/07 06:49:35;;;;;;;16.50;11.75;;;15.00;99.90;;;;;;5032922;28;20373;-77
2022/08/07 06:52:01;;;;;;;17.73;11.40;;;15.50;99.90;;;;;;5007653;28;20104;-77
2022/08/07 06:54:28;;;;;;;14.20;10.75;;;16.00;99.90;;;;;;5005499;28;20034;-77
2022/08/07 06:56:55;;;;;;;14.25;9.57;;;16.50;99.90;;;;;;5007109;28;20041;-77
2022/08/07 06:59:28;;;;;;;12.70;9.20;;;17.20;99.90;;;;;;5020636;28;20481;-77
2022/08/07 07:01:56;;;;;;;11.38;8.95;;;17.70;99.90;;;;;;5028497;28;20034;-76
2022/08/07 07:04:22;;;;;;;11.95;8.98;;;18.30;99.90;;;;;;5007277;28;20080;-77
2022/08/07 07:06:48;;;;;;;9.05;8.05;;;18.80;99.90;;;;;;5006294;28;20951;-77
2022/08/07 07:09:17;;;;;;;9.68;7.55;;;19.10;99.90;;;;;;5016430;28;20117;-78
2022/08/07 07:12:23;;;;;;;10.43;7.57;;;19.50;99.90;;;;;;5029190;28;20051;-77
2022/08/07 07:14:59;;;;;;;11.25;7.00;;;19.80;99.90;;;;;;5013827;28;20107;-77
2022/08/07 07:17:26;;;;;;;9.20;6.35;;;20.00;99.90;;;;;;5027075;28;20037;-77
2022/08/07 07:19:58;;;;;;;11.35;6.95;;;20.30;99.90;;;;;;5029345;28;20081;-77
2022/08/07 07:22:25;;;;;;;8.00;6.40;;;20.50;99.90;;;;;;5032890;28;20048;-79
2022/08/07 07:24:51;;;;;;;8.80;6.07;;;20.60;99.90;;;;;;5011957;28;20041;-78
2022/08/07 07:27:21;;;;;;;7.60;5.22;;;20.70;99.90;;;;;;5014238;28;20488;-77
2022/08/07 07:29:51;;;;;;;6.93;4.93;;;20.80;99.90;;;;;;5029291;28;20038;-77
2022/08/07 07:32:18;;;;;;;5.85;4.40;;;20.80;99.90;;;;;;5029949;28;20045;-80
2022/08/07 07:34:52;;;;;;;6.38;4.85;;;20.80;99.90;;;;;;5016197;28;20045;-78
2022/08/07 07:37:19;;;;;;;7.05;4.72;;;21.00;99.70;;;;;;5034654;28;20039;-78
2022/08/07 07:39:47;;;;;;;5.72;4.60;;;20.90;99.90;;;;;;5017756;28;20057;-80
2022/08/07 07:42:16;;;;;;;5.82;4.45;;;21.10;99.60;;;;;;5043309;28;20053;-79
2022/08/07 07:44:44;;;;;;;5.97;4.07;;;21.20;99.60;;;;;;5025380;28;20045;-80
2022/08/07 07:47:13;;;;;;;4.40;3.55;;;21.30;99.50;;;;;;5037445;28;20473;-80
2022/08/07 07:49:40;;;;;;;7.40;3.88;;;21.40;98.70;;;;;;5015870;28;20146;-79
2022/08/07 07:52:07;;;;;;;4.13;3.10;;;21.40;97.50;;;;;;5033758;28;20444;-80
2022/08/07 07:54:34;;;;;;;3.47;2.75;;;21.50;97.30;;;;;;5017635;28;20068;-80
2022/08/07 07:57:01;;;;;;;3.53;2.60;;;21.50;96.60;;;;;;5018620;28;20041;-81
2022/08/07 07:59:29;;;;;;;3.17;2.22;;;21.40;96.30;;;;;;5010262;28;20049;-80
2022/08/07 08:01:57;;;;;;;3.45;2.22;;;21.40;96.40;;;;;;5024651;28;20070;-80
2022/08/07 08:04:27;;;;;;;4.32;1.92;;;21.50;96.50;;;;;;5020165;28;20040;-80
2022/08/07 08:06:53;;;;;;;3.55;2.42;;;21.60;96.00;;;;;;5015653;28;20501;-80
2022/08/07 08:09:24;;;;;;;5.03;3.20;;;21.80;95.40;;;;;;5010227;28;20041;-80
2022/08/07 08:11:54;;;;;;;5.25;3.30;;;21.90;95.10;;;;;;5011925;28;20398;-80
2022/08/07 08:14:21;;;;;;;6.72;3.42;;;22.00;94.10;;;;;;5010049;28;20048;-78
2022/08/07 08:16:50;;;;;;;5.90;3.50;;;22.00;94.10;;;;;;4996159;28;20042;-78
2022/08/07 08:19:26;;;;;;;4.03;2.92;;;22.00;94.20;;;;;;5031130;28;20041;-88
2022/08/07 08:27:32;;;;;;;7.18;2.75;;;21.80;95.10;;;;;;5021640;28;19924;-86
2022/08/07 08:30:06;;;;;;;6.95;3.20;;;21.70;94.50;;;;;;5023911;28;20432;-79
2022/08/07 08:32:37;;;;;;;5.47;2.92;;;21.50;93.60;;;;;;5029667;28;20508;-78
2022/08/07 08:35:05;;;;;;;3.95;3.00;;;21.40;94.20;;;;;;5030789;28;20096;-80
2022/08/07 08:37:35;;;;;;;6.22;3.13;;;21.30;94.60;;;;;;5027105;28;20102;-77
2022/08/07 08:40:05;;;;;;;5.00;2.80;;;21.30;95.00;;;;;;5014558;28;20045;-79
2022/08/07 08:42:42;;;;;;;3.83;2.70;;;21.40;94.90;;;;;;5032901;28;20409;-82
2022/08/07 08:45:30;;;;;;;4.20;2.83;;;21.40;94.20;;;;;;5029419;28;20037;-81
2022/08/07 08:48:26;;;;;;;5.00;3.25;;;21.40;94.30;;;;;;5049068;28;20525;-81
2022/08/07 08:51:20;;;;;;;5.80;2.90;;;21.50;94.90;;;;;;5031475;28;20069;-81
2022/08/07 08:53:51;;;;;;;4.28;3.00;;;21.50;93.10;;;;;;5018722;28;20042;-80
2022/08/07 08:56:24;;;;;;;5.55;2.90;;;21.50;94.10;;;;;;5023991;28;20101;-81
2022/08/07 08:59:22;;;;;;;4.70;3.00;;;21.40;94.00;;;;;;5011673;28;20493;-81
2022/08/07 09:02:26;;;;;;;4.20;2.88;;;21.40;93.70;;;;;;4995526;28;20110;-78
2022/08/07 09:05:03;;;;;;;6.30;2.65;;;21.40;93.60;;;;;;5015102;28;20041;-79
2022/08/07 09:07:45;;;;;;;3.65;2.50;;;21.30;93.80;;;;;;5025711;28;20038;-79
2022/08/07 09:10:28;;;;;;;2.85;2.30;;;21.40;93.90;;;;;;5026207;28;20037;-79
2022/08/07 09:13:16;;;;;;;3.28;2.20;;;21.50;93.80;;;;;;5029997;28;20052;-85
2022/08/07 09:16:00;;;;;;;4.05;2.25;;;21.30;92.60;;;;;;5023685;28;20444;-84
2022/08/07 09:18:40;;;;;;;4.68;2.00;;;21.40;92.20;;;;;;5015632;28;20060;-88
2022/08/07 09:21:27;;;;;;;3.97;2.65;;;21.50;92.40;;;;;;5016930;28;20046;-85
2022/08/07 09:24:48;;;;;;;8.32;2.50;;;21.50;92.10;;;;;;5022671;28;20053;-84
2022/08/07 09:27:40;;;;;;;5.22;2.78;;;21.50;92.60;;;;;;4992508;28;20042;-84
2022/08/07 09:30:08;;;;;;;3.20;2.50;;;21.50;91.80;;;;;;5031239;28;20046;-84
2022/08/07 09:32:56;;;;;;;2.90;2.60;;;21.60;92.20;;;;;;5014114;28;20037;-84
2022/08/07 09:35:36;;;;;;;13.30;3.05;;;21.70;91.80;;;;;;5007722;28;20121;-84
2022/08/07 09:38:10;;;;;;;9.35;2.70;;;21.80;92.40;;;;;;5045238;28;20505;-86
2022/08/07 09:41:13;;;;;;;5.90;2.80;;;21.90;91.70;;;;;;5028119;28;20123;-84
2022/08/07 09:44:09;;;;;;;2.33;2.00;;;21.90;91.30;;;;;;5023473;28;20045;-83
2022/08/07 09:46:48;;;;;;;3.25;2.20;;;21.90;91.00;;;;;;5019388;28;20051;-83
2022/08/07 09:49:28;;;;;;;4.60;2.33;;;21.80;90.40;;;;;;5027462;28;20065;-83
2022/08/07 09:52:30;;;;;;;15.07;2.88;;;21.70;89.80;;;;;;5030093;28;20045;-83
2022/08/07 09:55:25;;;;;;;5.43;1.90;;;21.60;90.00;;;;;;5022392;28;20133;-83
2022/08/07 09:58:11;;;;;;;2.88;1.92;;;21.50;87.50;;;;;;5025847;28;20077;-84
2022/08/07 10:01:05;;;;;;;14.30;2.45;;;21.40;89.30;;;;;;5028367;28;20398;-83
2022/08/07 10:04:13;;;;;;;3.75;1.95;;;21.30;89.70;;;;;;5031706;28;20109;-84
2022/08/07 10:07:00;;;;;;;3.90;1.80;;;21.30;89.20;;;;;;5011320;28;20116;-84
2022/08/07 10:09:58;;;;;;;12.20;2.08;;;21.20;88.40;;;;;;5011015;28;20036;-82
2022/08/07 10:12:42;;;;;;;5.13;2.30;;;21.10;90.20;;;;;;5040211;28;20041;-83
2022/08/07 10:15:45;;;;;;;5.03;1.80;;;21.10;88.40;;;;;;5030217;28;20044;-81
2022/08/07 10:18:13;;;;;;;8.30;2.25;;;21.00;87.60;;;;;;5029102;28;20042;-83
2022/08/07 10:21:16;;;;;;;4.50;2.20;;;21.00;88.80;;;;;;5032850;28;20045;-84
2022/08/07 10:24:06;;;;;;;30.80;3.08;;;20.90;89.80;;;;;;5045312;28;20049;-83
2022/08/07 10:26:56;;;;;;;4.80;2.10;;;20.90;89.30;;;;;;5042118;28;20077;-83
2022/08/07 10:29:43;;;;;;;21.52;2.72;;;20.80;88.90;;;;;;5022300;28;20068;-82
2022/08/07 10:32:43;;;;;;;4.13;2.50;;;20.80;89.50;;;;;;5026984;28;20060;-83
2022/08/07 10:35:26;;;;;;;5.45;2.20;;;20.80;89.70;;;;;;5027992;28;20045;-85
2022/08/07 10:38:10;;;;;;;3.50;2.15;;;20.80;90.00;;;;;;5009363;28;20129;-85
2022/08/07 10:41:17;;;;;;;4.70;2.40;;;20.80;90.00;;;;;;5029584;28;20083;-84
2022/08/07 10:44:01;;;;;;;2.97;2.03;;;20.90;90.00;;;;;;4989824;28;20478;-84
2022/08/07 10:46:34;;;;;;;3.05;1.75;;;20.90;89.00;;;;;;5034838;28;20072;-85
2022/08/07 10:49:18;;;;;;;9.32;2.40;;;20.80;88.60;;;;;;5008664;28;20076;-85
2022/08/07 10:52:08;;;;;;;4.50;2.50;;;20.90;88.60;;;;;;5029722;28;20042;-85
2022/08/07 10:54:54;;;;;;;2.42;1.92;;;20.90;86.60;;;;;;5021825;28;20052;-85
2022/08/07 10:57:48;;;;;;;2.20;2.00;;;20.80;86.80;;;;;;5030608;28;20049;-84
2022/08/07 11:00:15;;;;;;;3.55;1.92;;;20.80;87.40;;;;;;5011617;28;20490;-83
2022/08/07 11:03:04;;;;;;;6.90;2.17;;;20.80;87.80;;;;;;5011711;28;20497;-83
2022/08/07 11:05:43;;;;;;;8.20;2.17;;;20.80;88.60;;;;;;5035406;28;20033;-84
2022/08/07 11:08:24;;;;;;;3.78;2.13;;;20.80;88.80;;;;;;5023037;28;20045;-83
2022/08/07 11:11:00;;;;;;;2.63;2.03;;;20.90;89.10;;;;;;5033565;28;20096;-83
2022/08/07 11:13:46;;;;;;;3.35;2.47;;;20.90;88.10;;;;;;5026802;28;20050;-85
2022/08/07 11:16:30;;;;;;;3.72;2.20;;;21.00;86.60;;;;;;5028325;28;20045;-84
2022/08/07 11:19:16;;;;;;;9.32;2.70;;;21.00;87.20;;;;;;5029888;28;20037;-83
2022/08/07 11:22:16;;;;;;;5.53;2.50;;;21.00;87.80;;;;;;5015498;28;20119;-79
2022/08/07 11:25:00;;;;;;;26.38;2.85;;;21.00;88.10;;;;;;5014833;28;20042;-79
2022/08/07 11:27:44;;;;;;;6.15;2.50;;;21.00;87.80;;;;;;5018285;28;20045;-79
2022/08/07 11:30:16;;;;;;;3.97;2.45;;;21.10;87.70;;;;;;5002602;28;20045;-79
2022/08/07 11:32:53;;;;;;;4.90;2.45;;;21.10;87.30;;;;;;5005991;28;20045;-79
2022/08/07 11:35:37;;;;;;;3.50;2.40;;;21.10;86.70;;;;;;5033265;28;20502;-78
2022/08/07 11:38:19;;;;;;;4.57;2.33;;;21.10;86.60;;;;;;5010203;28;20108;-79
2022/08/07 11:41:02;;;;;;;3.95;2.38;;;21.10;87.00;;;;;;5027799;28;20049;-79
2022/08/07 11:43:40;;;;;;;2.95;2.42;;;21.20;87.00;;;;;;5033542;28;20080;-83
2022/08/07 11:46:09;;;;;;;8.02;2.72;;;21.20;87.00;;;;;;5031860;28;20120;-83
2022/08/07 11:48:57;;;;;;;5.43;2.42;;;21.20;87.60;;;;;;5025228;28;20528;-78
2022/08/07 11:51:55;;;;;;;5.10;2.60;;;21.30;87.20;;;;;;5032734;28;20033;-78
2022/08/07 11:54:30;;;;;;;3.90;3.00;;;21.30;86.00;;;;;;5033986;28;20128;-79
2022/08/07 11:57:05;;;;;;;4.65;2.70;;;21.40;86.60;;;;;;5033952;28;20045;-78
2022/08/07 11:59:58;;;;;;;2.92;2.50;;;21.40;87.90;;;;;;5031827;28;20041;-79
2022/08/07 12:02:56;;;;;;;6.65;2.58;;;21.40;87.60;;;;;;5031028;28;20058;-79
2022/08/07 12:05:59;;;;;;;3.45;2.30;;;21.50;87.60;;;;;;5025679;28;20052;-83
2022/08/07 12:08:51;;;;;;;14.55;2.65;;;21.50;85.90;;;;;;5026891;28;20073;-83
2022/08/07 12:11:26;;;;;;;3.72;2.38;;;21.50;84.20;;;;;;5020528;28;20037;-83
2022/08/07 12:14:30;;;;;;;3.05;2.10;;;21.60;86.50;;;;;;5027324;28;20049;-84
2022/08/07 12:17:09;;;;;;;5.07;2.15;;;21.70;86.00;;;;;;5016195;28;20054;-84
2022/08/07 12:19:56;;;;;;;5.15;2.33;;;21.80;86.40;;;;;;5027894;28;20052;-80
2022/08/07 12:22:45;;;;;;;4.60;2.30;;;22.00;85.30;;;;;;5028704;28;20500;-79
2022/08/07 12:28:21;;;;;;;4.68;2.28;;;22.20;86.10;;;;;;5045933;28;20564;-79
2022/08/07 12:30:51;;;;;;;5.75;2.00;;;22.30;86.50;;;;;;5011400;28;20072;-79
2022/08/07 12:33:21;;;;;;;4.57;2.22;;;22.50;84.50;;;;;;4996526;28;20038;-79
2022/08/07 12:35:52;;;;;;;3.35;2.50;;;22.70;84.40;;;;;;4996802;28;20041;-79
2022/08/07 12:38:19;;;;;;;4.80;2.30;;;22.70;85.60;;;;;;5012476;28;20046;-79
2022/08/07 12:40:47;;;;;;;6.35;2.90;;;22.90;85.40;;;;;;5040941;28;20133;-79
2022/08/07 12:43:15;;;;;;;7.82;2.83;;;22.90;86.30;;;;;;5011376;28;20041;-78
2022/08/07 12:45:54;;;;;;;44.47;3.72;;;22.90;86.60;;;;;;5020815;28;20033;-78
2022/08/07 12:48:35;;;;;;;6.55;2.72;;;22.90;86.50;;;;;;5030385;28;20076;-80
2022/08/07 12:51:11;;;;;;;7.75;2.78;;;22.90;86.30;;;;;;5022035;28;20037;-80
2022/08/07 12:53:56;;;;;;;4.80;2.25;;;22.80;86.10;;;;;;5026594;28;20041;-80
2022/08/07 12:56:26;;;;;;;10.77;2.83;;;22.80;86.00;;;;;;5027002;28;20045;-80
2022/08/07 12:58:53;;;;;;;3.83;2.40;;;22.90;87.40;;;;;;5010884;28;20073;-79
2022/08/07 13:01:32;;;;;;;63.40;4.85;;;22.90;87.60;;;;;;5014201;28;20061;-80
2022/08/07 13:04:35;;;;;;;54.17;5.22;;;23.10;86.30;;;;;;5018206;28;20064;-78
2022/08/07 13:07:04;;;;;;;25.52;3.53;;;23.10;84.40;;;;;;5029345;28;20041;-79
2022/08/07 13:09:44;;;;;;;5.03;2.47;;;23.10;87.50;;;;;;5026598;28;20041;-81
2022/08/07 13:12:27;;;;;;;5.95;2.63;;;23.40;87.40;;;;;;5048960;28;20132;-81
2022/08/07 13:14:58;;;;;;;11.10;2.40;;;23.80;85.60;;;;;;5029605;28;20404;-80
2022/08/07 13:18:02;;;;;;;44.10;4.47;;;24.30;87.10;;;;;;5027902;28;20053;-80
2022/08/07 13:20:54;;;;;;;16.33;3.03;;;25.00;82.50;;;;;;4999420;28;20398;-78
2022/08/07 13:23:50;;;;;;;10.40;2.72;;;25.60;80.80;;;;;;5029636;28;20034;-80
2022/08/07 13:26:40;;;;;;;41.50;4.10;;;26.00;77.90;;;;;;5043789;28;20049;-81